createdAt,value
2017-12-17T00:00:36.151Z,3.97
2017-12-17T00:03:04.485Z,4.30
2017-12-17T00:05:32.028Z,3.90
2017-12-17T00:07:59.555Z,3.85
2017-12-17T00:10:27.135Z,4.40
2017-12-17T00:12:54.710Z,3.78
2017-12-17T00:15:22.256Z,4.40
2017-12-17T00:17:49.816Z,4.20
2017-12-17T00:20:17.363Z,4.62
2017-12-17T00:22:44.882Z,4.05
2017-12-17T00:25:12.426Z,4.55
2017-12-17T00:27:39.946Z,4.05
2017-12-17T00:30:08.256Z,3.87
2017-12-17T00:32:35.784Z,3.80
2017-12-17T00:35:03.324Z,4.20
2017-12-17T00:37:30.878Z,3.95
2017-12-17T00:39:58.418Z,4.10
2017-12-17T00:42:25.934Z,4.32
2017-12-17T00:44:53.484Z,3.95
2017-12-17T00:47:21.766Z,4.65
2017-12-17T00:49:49.311Z,4.03
2017-12-17T00:52:17.598Z,3.85
2017-12-17T00:54:45.908Z,3.90
2017-12-17T00:57:13.433Z,4.85
2017-12-17T00:59:41.738Z,4.25
2017-12-17T01:02:09.276Z,4.15
2017-12-17T01:04:37.583Z,3.83
2017-12-17T01:07:05.098Z,3.72
2017-12-17T01:09:32.638Z,5.00
2017-12-17T01:12:00.172Z,5.10
2017-12-17T01:14:27.712Z,4.93
2017-12-17T01:16:55.236Z,4.62
2017-12-17T01:19:22.783Z,4.85
2017-12-17T01:21:50.302Z,4.05
2017-12-17T01:24:17.851Z,4.35
2017-12-17T01:26:45.375Z,4.53
2017-12-17T01:29:12.914Z,4.10
2017-12-17T01:31:40.434Z,5.45
2017-12-17T01:34:08.743Z,5.12
2017-12-17T01:36:36.260Z,4.68
2017-12-17T01:39:04.575Z,4.70
2017-12-17T01:41:32.098Z,4.30
2017-12-17T01:44:00.406Z,5.82
2017-12-17T01:46:27.930Z,4.97
2017-12-17T01:48:55.498Z,6.40
2017-12-17T01:51:23.034Z,6.22
2017-12-17T01:53:50.554Z,6.30
2017-12-17T01:56:18.093Z,5.82
2017-12-17T01:58:46.389Z,6.62
2017-12-17T02:01:13.931Z,6.05
2017-12-17T02:03:42.218Z,5.05
2017-12-17T02:06:10.518Z,7.00
2017-12-17T02:08:38.036Z,6.45
2017-12-17T02:11:05.602Z,5.93
2017-12-17T02:13:33.127Z,7.43
2017-12-17T02:16:00.668Z,6.62
2017-12-17T02:18:28.198Z,6.95
2017-12-17T02:20:56.509Z,7.40
2017-12-17T02:23:24.030Z,6.95
2017-12-17T02:25:52.338Z,6.12
2017-12-17T02:28:19.893Z,5.40
2017-12-17T02:30:47.430Z,5.47
2017-12-17T02:33:15.715Z,5.90
2017-12-17T02:35:44.023Z,5.40
2017-12-17T02:38:11.540Z,5.65
2017-12-17T02:40:39.086Z,5.18
2017-12-17T02:43:06.610Z,5.15
2017-12-17T02:45:34.144Z,4.55
2017-12-17T02:48:02.426Z,4.53
2017-12-17T02:50:30.732Z,4.97
2017-12-17T02:52:58.263Z,4.40
2017-12-17T02:55:26.576Z,5.55
2017-12-17T02:57:54.095Z,5.47
2017-12-17T03:00:26.269Z,4.85
2017-12-17T03:02:54.563Z,6.85
2017-12-17T03:05:22.118Z,5.47
2017-12-17T03:07:50.402Z,5.03
2017-12-17T03:10:17.940Z,5.47
2017-12-17T03:12:46.247Z,6.22
2017-12-17T03:15:13.772Z,4.70
2017-12-17T03:17:41.315Z,5.87
2017-12-17T03:20:08.854Z,5.30
2017-12-17T03:22:36.394Z,5.50
2017-12-17T03:25:03.918Z,5.10
2017-12-17T03:27:31.493Z,3.85
2017-12-17T03:29:59.791Z,5.00
2017-12-17T03:32:27.308Z,5.07
2017-12-17T03:34:54.854Z,5.50
2017-12-17T03:37:22.375Z,4.82
2017-12-17T03:39:49.909Z,5.00
2017-12-17T03:42:17.431Z,4.78
2017-12-17T03:44:44.980Z,5.55
2017-12-17T03:47:12.502Z,4.75
2017-12-17T03:49:40.072Z,5.15
2017-12-17T03:52:08.362Z,4.43
2017-12-17T03:54:35.888Z,4.95
2017-12-17T03:57:03.435Z,5.05
2017-12-17T03:59:30.951Z,5.10
2017-12-17T04:01:58.489Z,3.97
2017-12-17T04:04:26.779Z,4.30
2017-12-17T04:06:55.083Z,3.50
2017-12-17T04:09:22.618Z,4.05
2017-12-17T04:11:50.923Z,5.00
2017-12-17T04:14:18.441Z,3.70
2017-12-17T04:16:45.984Z,4.37
2017-12-17T04:19:13.499Z,4.75
2017-12-17T04:21:41.045Z,5.78
2017-12-17T04:24:09.326Z,4.20
2017-12-17T04:26:36.862Z,4.60
2017-12-17T04:29:04.386Z,4.70
2017-12-17T04:31:31.923Z,4.57
2017-12-17T04:33:59.443Z,4.10
2017-12-17T04:36:26.986Z,4.80
2017-12-17T04:38:54.503Z,5.03
2017-12-17T04:41:22.041Z,5.25
2017-12-17T04:43:50.330Z,5.90
2017-12-17T04:46:18.631Z,5.03
2017-12-17T04:48:46.150Z,5.50
2017-12-17T04:51:13.686Z,4.80
2017-12-17T04:53:41.206Z,5.95
2017-12-17T04:56:08.752Z,4.68
2017-12-17T04:58:37.042Z,4.80
2017-12-17T05:01:05.357Z,5.00
2017-12-17T05:03:32.887Z,5.70
2017-12-17T05:06:00.422Z,5.45
2017-12-17T05:08:28.716Z,4.80
2017-12-17T05:10:57.022Z,5.82
2017-12-17T05:13:24.534Z,6.15
2017-12-17T05:15:52.079Z,5.30
2017-12-17T05:18:19.603Z,6.03
2017-12-17T05:20:47.138Z,5.65
2017-12-17T05:23:15.423Z,5.70
2017-12-17T05:25:43.709Z,5.75
2017-12-17T05:28:12.006Z,4.70
2017-12-17T05:30:39.533Z,5.68
2017-12-17T05:33:08.320Z,5.32
2017-12-17T05:35:35.839Z,5.65
2017-12-17T05:38:03.366Z,5.18
2017-12-17T05:40:30.888Z,5.35
2017-12-17T05:42:58.434Z,5.87
2017-12-17T05:45:25.951Z,5.68
2017-12-17T05:47:53.558Z,4.72
2017-12-17T05:50:21.071Z,4.10
2017-12-17T05:52:49.370Z,4.70
2017-12-17T05:55:16.877Z,4.28
2017-12-17T05:57:44.421Z,4.30
2017-12-17T06:00:11.947Z,3.83
2017-12-17T06:02:39.485Z,4.20
2017-12-17T06:05:07.774Z,3.80
2017-12-17T06:07:36.076Z,3.78
2017-12-17T06:10:03.593Z,3.60
2017-12-17T06:12:31.125Z,3.33
2017-12-17T06:14:58.645Z,3.40
2017-12-17T06:17:26.187Z,3.78
2017-12-17T06:19:54.466Z,3.50
2017-12-17T06:22:22.774Z,3.95
2017-12-17T06:24:50.289Z,4.37
2017-12-17T06:27:17.822Z,3.58
2017-12-17T06:29:45.338Z,3.75
2017-12-17T06:32:13.635Z,4.00
2017-12-17T06:34:41.155Z,4.25
2017-12-17T06:37:08.687Z,4.32
2017-12-17T06:39:36.202Z,3.92
2017-12-17T06:42:04.510Z,4.40
2017-12-17T06:44:32.039Z,3.95
2017-12-17T06:47:00.352Z,3.87
2017-12-17T06:49:27.868Z,5.10
2017-12-17T06:51:56.174Z,4.75
2017-12-17T06:54:23.686Z,4.53
2017-12-17T06:56:51.275Z,5.87
2017-12-17T06:59:19.555Z,5.00
2017-12-17T07:01:47.869Z,6.32
2017-12-17T07:04:15.394Z,4.90
2017-12-17T07:06:43.762Z,5.22
2017-12-17T07:09:11.277Z,6.05
2017-12-17T07:11:38.809Z,5.70
2017-12-17T07:14:07.095Z,6.28
2017-12-17T07:16:34.702Z,4.82
2017-12-17T07:19:02.224Z,5.35
2017-12-17T07:21:29.754Z,6.10
2017-12-17T07:23:57.294Z,6.62
2017-12-17T07:26:24.806Z,4.80
2017-12-17T07:28:52.347Z,5.62
2017-12-17T07:31:20.640Z,5.85
2017-12-17T07:33:48.942Z,5.53
2017-12-17T07:36:16.458Z,6.90
2017-12-17T07:38:43.991Z,6.50
2017-12-17T07:41:11.517Z,7.22
2017-12-17T07:43:39.056Z,6.05
2017-12-17T07:46:07.352Z,5.55
2017-12-17T07:48:34.888Z,5.53
2017-12-17T07:51:02.411Z,5.05
2017-12-17T07:53:29.948Z,5.60
2017-12-17T07:55:57.471Z,5.62
2017-12-17T07:58:25.008Z,5.40
2017-12-17T08:00:52.532Z,4.85
2017-12-17T08:03:20.078Z,5.22
2017-12-17T08:05:47.605Z,5.85
2017-12-17T08:08:15.154Z,4.90
2017-12-17T08:10:42.678Z,5.10
2017-12-17T08:13:10.218Z,4.75
2017-12-17T08:15:38.508Z,3.92
2017-12-17T08:18:06.055Z,5.37
2017-12-17T08:20:34.349Z,5.15
2017-12-17T08:23:01.895Z,4.37
2017-12-17T08:25:30.191Z,5.00
2017-12-17T08:27:57.730Z,5.05
2017-12-17T08:30:25.251Z,9.18
2017-12-17T08:32:52.790Z,8.82
2017-12-17T08:35:20.307Z,5.35
2017-12-17T08:37:47.846Z,3.97
2017-12-17T08:40:15.366Z,7.95
2017-12-17T08:42:42.908Z,5.60
2017-12-17T08:45:11.199Z,5.95
2017-12-17T08:47:38.743Z,5.40
2017-12-17T08:50:07.030Z,4.20
2017-12-17T08:52:35.339Z,4.18
2017-12-17T08:55:02.857Z,4.75
2017-12-17T08:57:30.394Z,4.45
2017-12-17T08:59:57.920Z,4.43
2017-12-17T09:02:25.468Z,5.20
2017-12-17T09:04:52.990Z,4.05
2017-12-17T09:07:20.530Z,5.07
2017-12-17T09:09:48.053Z,5.22
2017-12-17T09:12:16.344Z,6.60
2017-12-17T09:14:43.895Z,5.72
2017-12-17T09:17:11.419Z,5.18
2017-12-17T09:19:38.959Z,5.47
2017-12-17T09:22:06.482Z,5.62
2017-12-17T09:24:34.018Z,4.85
2017-12-17T09:27:01.539Z,5.10
2017-12-17T09:29:29.081Z,4.53
2017-12-17T09:31:56.598Z,4.80
2017-12-17T09:34:24.143Z,4.62
2017-12-17T09:36:51.665Z,4.80
2017-12-17T09:39:19.211Z,4.32
2017-12-17T09:41:46.730Z,4.80
2017-12-17T09:44:14.271Z,5.93
2017-12-17T09:46:41.795Z,4.00
2017-12-17T09:49:10.102Z,4.57
2017-12-17T09:51:37.656Z,5.28
2017-12-17T09:54:05.187Z,3.97
2017-12-17T09:56:33.470Z,3.95
2017-12-17T09:59:01.791Z,4.28
2017-12-17T10:01:29.322Z,5.70
2017-12-17T10:03:56.895Z,5.10
2017-12-17T10:06:24.420Z,6.07
2017-12-17T10:08:51.943Z,6.20
2017-12-17T10:11:19.482Z,4.22
2017-12-17T10:13:47.002Z,4.70
2017-12-17T10:16:14.548Z,5.97
2017-12-17T10:18:42.080Z,5.62
2017-12-17T10:21:09.619Z,4.95
2017-12-17T10:23:37.147Z,6.65
2017-12-17T10:26:04.691Z,5.80
2017-12-17T10:28:32.214Z,6.22
2017-12-17T10:30:59.777Z,7.10
2017-12-17T10:33:27.303Z,6.00
2017-12-17T10:35:54.843Z,4.33
2017-12-17T10:38:22.362Z,4.50
2017-12-17T10:40:49.899Z,4.87
2017-12-17T10:43:17.442Z,4.95
2017-12-17T10:45:44.990Z,3.75
2017-12-17T10:48:12.510Z,4.47
2017-12-17T10:50:40.054Z,4.28
2017-12-17T10:53:07.590Z,5.25
2017-12-17T10:55:35.942Z,4.68
2017-12-17T10:58:03.464Z,4.47
2017-12-17T11:00:30.991Z,4.65
2017-12-17T11:02:58.544Z,5.00
2017-12-17T11:05:26.109Z,4.45
2017-12-17T11:07:53.677Z,5.80
2017-12-17T11:10:21.202Z,6.05
2017-12-17T11:12:48.750Z,8.95
2017-12-17T11:15:16.274Z,7.25
2017-12-17T11:17:43.822Z,6.75
2017-12-17T11:20:11.356Z,6.35
2017-12-17T11:22:38.909Z,4.75
2017-12-17T11:25:06.430Z,5.70
2017-12-17T11:27:33.948Z,5.68
2017-12-17T11:30:01.487Z,4.55
2017-12-17T11:32:29.007Z,5.68
2017-12-17T11:34:56.551Z,5.10
2017-12-17T11:37:24.079Z,5.45
2017-12-17T11:39:51.625Z,6.93
2017-12-17T11:42:19.151Z,5.40
2017-12-17T11:44:46.693Z,4.87
2017-12-17T11:47:14.215Z,5.77
2017-12-17T11:49:41.821Z,4.00
2017-12-17T11:52:09.334Z,5.43
2017-12-17T11:54:37.631Z,5.25
2017-12-17T11:57:05.170Z,5.37
2017-12-17T11:59:33.512Z,5.05
2017-12-17T12:02:01.055Z,5.40
2017-12-17T12:04:28.582Z,5.32
2017-12-17T12:06:56.131Z,5.65
2017-12-17T12:09:24.418Z,5.75
2017-12-17T12:11:52.020Z,5.13
2017-12-17T12:14:19.568Z,5.22
2017-12-17T12:16:47.112Z,5.30
2017-12-17T12:19:14.646Z,5.37
2017-12-17T12:21:42.193Z,6.32
2017-12-17T12:24:09.721Z,6.72
2017-12-17T12:26:37.297Z,6.12
2017-12-17T12:29:04.865Z,6.57
2017-12-17T12:31:32.444Z,7.70
2017-12-17T12:34:00.026Z,5.40
2017-12-17T12:36:28.310Z,6.90
2017-12-17T12:38:56.618Z,7.12
2017-12-17T12:41:24.138Z,4.95
2017-12-17T12:43:51.686Z,7.03
2017-12-17T12:46:19.211Z,8.82
2017-12-17T12:48:46.750Z,6.37
2017-12-17T12:51:14.271Z,5.97
2017-12-17T12:53:41.857Z,6.80
2017-12-17T12:56:10.161Z,7.62
2017-12-17T12:58:37.706Z,6.30
2017-12-17T13:01:06.002Z,6.45
2017-12-17T13:03:33.551Z,8.55
2017-12-17T13:06:01.073Z,5.80
2017-12-17T13:08:28.623Z,8.02
2017-12-17T13:10:56.155Z,10.18
2017-12-17T13:13:23.695Z,8.70
2017-12-17T13:15:51.996Z,6.55
2017-12-17T13:18:19.519Z,6.62
2017-12-17T13:20:47.827Z,6.12
2017-12-17T13:23:15.356Z,6.70
2017-12-17T13:25:43.666Z,6.20
2017-12-17T13:28:11.191Z,6.65
2017-12-17T13:30:38.731Z,7.45
2017-12-17T13:33:06.262Z,7.40
2017-12-17T13:35:33.809Z,6.53
2017-12-17T13:38:01.331Z,5.32
2017-12-17T13:40:28.874Z,5.78
2017-12-17T13:42:56.392Z,6.55
2017-12-17T13:45:23.992Z,6.75
2017-12-17T13:47:51.527Z,9.43
2017-12-17T13:50:19.054Z,8.80
2017-12-17T13:52:47.403Z,8.30
2017-12-17T13:55:14.927Z,6.60
2017-12-17T13:57:42.462Z,7.20
2017-12-17T14:00:10.750Z,9.20
2017-12-17T14:02:39.067Z,7.28
2017-12-17T14:05:06.635Z,6.18
2017-12-17T14:07:34.231Z,6.22
2017-12-17T14:10:01.792Z,5.97
2017-12-17T14:12:29.347Z,5.50
2017-12-17T14:14:56.915Z,6.53
2017-12-17T14:17:24.441Z,5.97
2017-12-17T14:19:52.030Z,5.80
2017-12-17T14:22:19.600Z,6.90
2017-12-17T14:24:47.187Z,5.75
2017-12-17T14:27:15.479Z,4.87
2017-12-17T14:29:43.014Z,5.47
2017-12-17T14:32:10.537Z,8.10
2017-12-17T14:34:38.083Z,8.10
2017-12-17T14:37:05.648Z,5.43
2017-12-17T14:39:33.185Z,5.40
2017-12-17T14:42:01.473Z,5.93
2017-12-17T14:44:29.060Z,7.03
2017-12-17T14:46:56.587Z,6.10
2017-12-17T14:49:24.897Z,6.80
2017-12-17T14:51:52.419Z,5.55
2017-12-17T14:54:20.769Z,6.00
2017-12-17T14:56:48.290Z,5.05
2017-12-17T14:59:15.840Z,6.10
2017-12-17T15:01:43.362Z,6.90
2017-12-17T15:04:10.989Z,6.03
2017-12-17T15:06:38.539Z,5.60
2017-12-17T15:09:06.054Z,5.78
2017-12-17T15:11:33.602Z,8.38
2017-12-17T15:14:01.130Z,7.80
2017-12-17T15:16:28.679Z,15.35
2017-12-17T15:18:56.210Z,14.80
2017-12-17T15:21:24.518Z,9.57
2017-12-17T15:23:52.042Z,8.40
2017-12-17T15:26:19.581Z,7.12
2017-12-17T15:28:47.149Z,5.80
2017-12-17T15:31:14.724Z,9.95
2017-12-17T15:33:42.266Z,8.95
2017-12-17T15:36:09.792Z,7.97
2017-12-17T15:38:37.341Z,7.07
2017-12-17T15:41:04.918Z,6.68
2017-12-17T15:43:32.466Z,7.20
2017-12-17T15:46:00.046Z,6.10
2017-12-17T15:48:27.642Z,5.43
2017-12-17T15:50:55.210Z,5.97
2017-12-17T15:53:22.806Z,5.80
2017-12-17T15:55:51.143Z,6.80
2017-12-17T15:58:18.734Z,7.25
2017-12-17T16:00:46.262Z,5.35
2017-12-17T16:03:13.850Z,6.30
2017-12-17T16:05:41.422Z,6.03
2017-12-17T16:08:08.975Z,5.37
2017-12-17T16:10:36.558Z,5.72
2017-12-17T16:13:04.908Z,7.20
2017-12-17T16:15:32.481Z,5.90
2017-12-17T16:18:00.066Z,6.22
2017-12-17T16:20:28.372Z,6.40
2017-12-17T16:22:55.940Z,8.90
2017-12-17T16:25:23.533Z,8.10
2017-12-17T16:27:51.099Z,10.20
2017-12-17T16:30:18.637Z,6.45
2017-12-17T16:32:46.163Z,7.62
2017-12-17T16:35:13.762Z,7.32
2017-12-17T16:37:41.286Z,6.30
2017-12-17T16:40:08.872Z,7.28
2017-12-17T16:42:36.446Z,6.60
2017-12-17T16:45:04.034Z,6.05
2017-12-17T16:47:31.606Z,5.55
2017-12-17T16:49:59.206Z,11.48
2017-12-17T16:52:26.779Z,5.20
2017-12-17T16:54:54.369Z,7.30
2017-12-17T16:57:21.941Z,6.85
2017-12-17T16:59:49.487Z,6.47
2017-12-17T17:02:17.053Z,6.87
2017-12-17T17:04:44.615Z,28.87
2017-12-17T17:07:12.200Z,8.88
2017-12-17T17:09:40.545Z,22.13
2017-12-17T17:12:08.086Z,31.67
2017-12-17T17:14:35.670Z,21.08
2017-12-17T17:17:03.252Z,5.80
2017-12-17T17:19:30.774Z,6.25
2017-12-17T17:21:58.366Z,5.70
2017-12-17T17:24:25.940Z,6.93
2017-12-17T17:26:53.492Z,6.80
2017-12-17T17:29:21.067Z,7.95
2017-12-17T17:31:48.667Z,6.60
2017-12-17T17:34:16.186Z,7.72
2017-12-17T17:36:43.782Z,9.77
2017-12-17T17:39:12.075Z,8.93
2017-12-17T17:41:39.666Z,7.93
2017-12-17T17:44:07.243Z,8.32
2017-12-17T17:46:34.842Z,8.02
2017-12-17T17:49:03.186Z,7.82
2017-12-17T17:51:30.773Z,7.87
2017-12-17T17:53:58.354Z,6.90
2017-12-17T17:56:26.718Z,8.23
2017-12-17T17:58:54.246Z,7.78
2017-12-17T18:01:21.847Z,7.78
2017-12-17T18:03:49.421Z,6.97
2017-12-17T18:06:17.787Z,7.85
2017-12-17T18:08:45.361Z,8.48
2017-12-17T18:11:12.945Z,6.55
2017-12-17T18:13:40.478Z,8.13
2017-12-17T18:16:08.077Z,8.45
2017-12-17T18:18:35.635Z,6.95
2017-12-17T18:21:03.267Z,8.07
2017-12-17T18:23:30.793Z,8.00
2017-12-17T18:25:58.397Z,7.78
2017-12-17T18:28:25.984Z,8.55
2017-12-17T18:30:54.350Z,9.32
2017-12-17T18:33:22.694Z,9.18
2017-12-17T18:35:50.302Z,8.10
2017-12-17T18:38:18.627Z,8.13
2017-12-17T18:40:46.200Z,8.30
2017-12-17T18:43:13.799Z,8.57
2017-12-17T18:45:41.330Z,10.25
2017-12-17T18:48:08.926Z,8.32
2017-12-17T18:50:36.496Z,9.07
2017-12-17T18:53:04.855Z,6.60
2017-12-17T18:55:32.437Z,7.37
2017-12-17T18:58:00.054Z,10.25
2017-12-17T19:00:27.636Z,7.40
2017-12-17T19:02:55.229Z,6.85
2017-12-17T19:05:22.798Z,6.60
2017-12-17T19:07:51.112Z,6.55
2017-12-17T19:10:18.687Z,7.15
2017-12-17T19:12:46.278Z,7.18
2017-12-17T19:15:13.909Z,7.12
2017-12-17T19:17:41.501Z,5.95
2017-12-17T19:20:09.074Z,9.75
2017-12-17T19:22:36.697Z,16.98
2017-12-17T19:25:04.275Z,8.02
2017-12-17T19:27:31.876Z,8.05
2017-12-17T19:29:59.453Z,8.23
2017-12-17T19:32:27.817Z,8.40
2017-12-17T19:34:55.402Z,12.77
2017-12-17T19:37:23.802Z,10.75
2017-12-17T19:39:51.373Z,9.90
2017-12-17T19:42:18.954Z,10.32
2017-12-17T19:44:46.554Z,10.95
2017-12-17T19:47:14.131Z,8.95
2017-12-17T19:49:42.498Z,6.55
2017-12-17T19:52:10.067Z,5.93
2017-12-17T19:54:38.426Z,4.90
2017-12-17T19:57:05.993Z,4.90
2017-12-17T19:59:33.581Z,5.95
2017-12-17T20:02:01.917Z,5.30
2017-12-17T20:04:29.454Z,6.28
2017-12-17T20:06:57.022Z,6.97
2017-12-17T20:09:24.618Z,5.60
2017-12-17T20:11:52.189Z,6.78
2017-12-17T20:14:19.784Z,6.37
2017-12-17T20:16:48.113Z,6.12
2017-12-17T20:19:15.711Z,6.65
2017-12-17T20:21:44.054Z,6.37
2017-12-17T20:24:11.642Z,6.50
2017-12-17T20:26:39.209Z,6.47
2017-12-17T20:29:06.803Z,7.97
2017-12-17T20:31:34.388Z,6.43
2017-12-17T20:34:01.974Z,6.90
2017-12-17T20:36:29.538Z,6.28
2017-12-17T20:38:57.078Z,6.70
2017-12-17T20:41:24.669Z,6.47
2017-12-17T20:43:52.237Z,6.90
2017-12-17T20:46:19.830Z,4.95
2017-12-17T20:48:48.168Z,6.87
2017-12-17T20:51:15.758Z,5.15
2017-12-17T20:53:43.330Z,4.72
2017-12-17T20:56:11.682Z,4.28
2017-12-17T20:58:39.249Z,3.70
2017-12-17T21:01:06.837Z,4.32
2017-12-17T21:03:35.168Z,4.82
2017-12-17T21:06:02.750Z,4.35
2017-12-17T21:08:30.388Z,6.70
2017-12-17T21:10:57.974Z,5.43
2017-12-17T21:13:25.552Z,5.80
2017-12-17T21:15:53.146Z,6.85
2017-12-17T21:18:20.717Z,6.90
2017-12-17T21:20:48.305Z,8.50
2017-12-17T21:23:15.876Z,7.65
2017-12-17T21:25:43.462Z,7.12
2017-12-17T21:28:11.059Z,7.10
2017-12-17T21:30:38.647Z,7.00
2017-12-17T21:33:06.214Z,7.03
2017-12-17T21:35:33.804Z,6.55
2017-12-17T21:38:01.368Z,7.05
2017-12-17T21:40:28.929Z,6.95
2017-12-17T21:42:56.521Z,6.62
2017-12-17T21:45:24.857Z,6.85
2017-12-17T21:47:52.457Z,6.60
2017-12-17T21:50:20.797Z,7.30
2017-12-17T21:52:48.381Z,6.37
2017-12-17T21:55:15.956Z,7.30
2017-12-17T21:57:43.546Z,6.87
2017-12-17T22:00:11.129Z,7.07
2017-12-17T22:02:38.733Z,7.03
2017-12-17T22:05:06.310Z,8.40
2017-12-17T22:07:34.673Z,7.80
2017-12-17T22:10:02.236Z,7.12
2017-12-17T22:12:29.834Z,7.93
2017-12-17T22:14:58.170Z,8.13
2017-12-17T22:17:25.769Z,8.30
2017-12-17T22:19:54.126Z,10.32
2017-12-17T22:22:21.786Z,7.75
2017-12-17T22:24:49.361Z,9.57
2017-12-17T22:27:16.969Z,10.00
2017-12-17T22:29:44.541Z,9.75
2017-12-17T22:32:12.134Z,9.82
2017-12-17T22:34:39.705Z,8.80
2017-12-17T22:37:07.306Z,8.88
2017-12-17T22:39:35.643Z,8.75
2017-12-17T22:42:03.214Z,9.50
2017-12-17T22:44:30.810Z,8.70
2017-12-17T22:46:59.157Z,10.23
2017-12-17T22:49:26.754Z,11.20
2017-12-17T22:51:55.095Z,9.63
2017-12-17T22:54:22.694Z,11.40
2017-12-17T22:56:51.034Z,9.20
2017-12-17T22:59:18.636Z,11.90
2017-12-17T23:01:46.971Z,10.70
2017-12-17T23:04:14.570Z,9.93
2017-12-17T23:06:42.140Z,11.10
2017-12-17T23:09:10.491Z,10.15
2017-12-17T23:11:38.058Z,10.60
2017-12-17T23:14:05.602Z,9.93
2017-12-17T23:16:33.168Z,10.75
2017-12-17T23:19:00.761Z,10.05
2017-12-17T23:21:28.287Z,9.82
2017-12-17T23:23:55.842Z,10.65
2017-12-17T23:26:23.366Z,9.98
2017-12-17T23:28:51.677Z,9.95
2017-12-17T23:31:19.209Z,10.13
2017-12-17T23:33:47.541Z,10.73
2017-12-17T23:36:15.063Z,9.35
2017-12-17T23:38:43.373Z,9.27
2017-12-17T23:41:10.899Z,10.93
2017-12-17T23:43:39.191Z,10.13
2017-12-17T23:46:07.499Z,9.27
2017-12-17T23:48:35.018Z,9.13
2017-12-17T23:51:03.396Z,10.23
2017-12-17T23:53:30.910Z,8.00
2017-12-17T23:55:58.450Z,8.52
2017-12-17T23:58:25.986Z,10.07
